Blanchard Township, Maine
Current Conditions -  °F | °C
As of 7:53 PM on Sunday 23 Nov 2014 (Local Time) from KMLT Reporting Station
Overcast Overcast  
Wind Chill: 38°   Ceiling: 3300
Heat Index: 38°   Visibility: 10mi
Dew Point: 33°   Wind: 3mph
Humidity: 83%   Direction: 110°ESE
Pressure: 30.13"   Gusts: NA
Location:  45.3122°N, 69.5439°W
Report Text: KMLT 240053Z AUTO 11003KT 10SM OVC033 03/01 A3013 RMK AO2 SLP214 T00330006
Loading
Personal Weather Stations






























Interactive Weather Map New forecast layout! Learn more

10-Day Weather Forecast

Advertisements
Track Severe Weather on mobile